Time;durP1;ratioP1;P1;durP2;ratioP2;P2;SDS_P1;SDS_P2;PMS_P1;PMS_P2;Temp;Humidity;BMP_temperature;BMP_pressure;BME280_temperature;BME280_humidity;BME280_pressure;Samples;Min_cycle;Max_cycle;Signal;HPM_P1;HPM_P2
2022/07/05 00:03:07;;;;;;;2.10;1.30;;;23.10;56.60;;;;;;10136003;28;20016;-67
2022/07/05 00:07:57;;;;;;;1.45;0.80;;;23.20;56.50;;;;;;10137089;28;20519;-68
2022/07/05 00:12:48;;;;;;;2.05;0.93;;;22.90;57.00;;;;;;10143979;28;20045;-65
2022/07/05 00:17:39;;;;;;;2.47;0.80;;;22.90;57.20;;;;;;10144006;28;20028;-62
2022/07/05 00:22:29;;;;;;;0.75;0.65;;;22.90;57.30;;;;;;10144029;28;20483;-63
2022/07/05 00:27:21;;;;;;;1.48;0.93;;;23.00;57.30;;;;;;10142835;28;20070;-64
2022/07/05 00:32:11;;;;;;;1.83;0.90;;;22.80;57.80;;;;;;10142850;28;20424;-64
2022/07/05 00:37:02;;;;;;;3.70;1.00;;;22.40;58.30;;;;;;10144348;28;20115;-64
2022/07/05 00:41:53;;;;;;;1.73;1.10;;;22.50;58.20;;;;;;10143679;28;20089;-68
2022/07/05 00:46:44;;;;;;;1.40;0.88;;;22.50;58.60;;;;;;10142536;28;20036;-69
2022/07/05 00:51:37;;;;;;;1.35;1.00;;;22.00;59.30;;;;;;10142636;28;20020;-68
2022/07/05 00:56:28;;;;;;;1.17;0.93;;;21.80;59.80;;;;;;10137273;28;20048;-67
2022/07/05 01:01:19;;;;;;;1.05;0.80;;;21.70;60.20;;;;;;10142012;28;20194;-68
2022/07/05 01:06:11;;;;;;;1.80;1.10;;;21.70;60.30;;;;;;10141776;28;20067;-66
2022/07/05 01:11:02;;;;;;;3.25;1.25;;;22.00;60.10;;;;;;10141633;28;20047;-65
2022/07/05 01:15:54;;;;;;;1.63;1.10;;;21.80;60.50;;;;;;10123362;28;20025;-68
2022/07/05 01:20:48;;;;;;;2.78;0.80;;;21.70;60.80;;;;;;10140123;28;20074;-66
2022/07/05 01:25:38;;;;;;;3.28;1.15;;;21.70;61.10;;;;;;10123073;28;20502;-66
2022/07/05 01:30:32;;;;;;;2.40;1.10;;;21.80;60.80;;;;;;10140673;28;20021;-67
2022/07/05 01:35:23;;;;;;;2.03;1.00;;;21.80;61.00;;;;;;10141499;28;20475;-68
2022/07/05 01:40:13;;;;;;;0.85;0.73;;;21.70;61.00;;;;;;10141237;28;20020;-68
2022/07/05 01:45:05;;;;;;;1.67;0.98;;;21.80;61.00;;;;;;10142120;28;20067;-69
2022/07/05 01:49:59;;;;;;;1.05;0.95;;;21.90;60.90;;;;;;10121798;28;20041;-65
2022/07/05 01:54:49;;;;;;;2.15;0.70;;;21.80;61.00;;;;;;10136787;28;20032;-64
2022/07/05 01:59:40;;;;;;;1.27;0.73;;;21.80;61.20;;;;;;10139602;28;20028;-66
2022/07/05 02:04:32;;;;;;;1.58;0.98;;;21.80;61.20;;;;;;10139471;28;20419;-67
2022/07/05 02:09:24;;;;;;;1.92;1.50;;;21.60;62.10;;;;;;10143097;28;20028;-68
2022/07/05 02:14:14;;;;;;;1.60;1.00;;;21.80;61.40;;;;;;10139223;28;20452;-67
2022/07/05 02:19:05;;;;;;;0.90;0.80;;;21.60;61.50;;;;;;10120985;28;20024;-64
2022/07/05 02:23:56;;;;;;;1.50;1.13;;;21.60;61.60;;;;;;10139164;28;20028;-64
2022/07/05 02:28:47;;;;;;;2.15;0.93;;;21.40;61.90;;;;;;10139097;28;20039;-63
2022/07/05 02:33:38;;;;;;;0.95;0.95;;;21.60;61.90;;;;;;10138076;28;20119;-63
2022/07/05 02:38:28;;;;;;;1.80;0.90;;;21.40;62.20;;;;;;10138405;28;20548;-63
2022/07/05 02:43:19;;;;;;;5.75;0.88;;;21.50;62.20;;;;;;10139492;28;20041;-64
2022/07/05 02:48:10;;;;;;;1.15;1.05;;;21.50;62.10;;;;;;10137792;28;20041;-64
2022/07/05 02:53:01;;;;;;;2.08;0.82;;;21.40;62.40;;;;;;10138110;28;20110;-61
2022/07/05 02:57:53;;;;;;;1.02;0.93;;;21.30;62.70;;;;;;10132316;28;20044;-66
2022/07/05 03:02:43;;;;;;;3.00;0.85;;;21.30;62.60;;;;;;10137122;28;20108;-69
2022/07/05 03:07:34;;;;;;;2.10;1.23;;;21.30;62.50;;;;;;10135542;28;20115;-64
2022/07/05 03:12:24;;;;;;;1.67;1.00;;;21.10;62.90;;;;;;10119088;28;20110;-65
2022/07/05 03:17:15;;;;;;;1.85;0.82;;;21.20;63.10;;;;;;10137289;28;20471;-68
2022/07/05 03:22:06;;;;;;;3.65;1.00;;;21.30;62.90;;;;;;10136840;28;20020;-69
2022/07/05 03:26:56;;;;;;;2.97;1.00;;;21.30;62.80;;;;;;10117788;28;20113;-69
2022/07/05 03:31:48;;;;;;;1.75;0.70;;;21.30;63.10;;;;;;10115831;28;20202;-67
2022/07/05 03:36:39;;;;;;;1.42;0.73;;;21.30;63.20;;;;;;10136422;28;20346;-66
2022/07/05 03:41:30;;;;;;;1.45;1.20;;;21.20;63.30;;;;;;10136460;28;20024;-65
2022/07/05 03:46:20;;;;;;;2.20;0.70;;;21.00;63.50;;;;;;10135650;28;20095;-62
2022/07/05 03:51:11;;;;;;;1.60;0.80;;;21.00;63.60;;;;;;10137099;28;20033;-68
2022/07/05 03:56:02;;;;;;;1.77;0.80;;;20.90;63.90;;;;;;10131721;28;20055;-68
2022/07/05 04:00:52;;;;;;;3.47;1.02;;;21.10;63.60;;;;;;10135976;28;20067;-67
2022/07/05 04:05:43;;;;;;;1.70;0.77;;;21.10;63.50;;;;;;10136449;28;20032;-69
2022/07/05 04:10:34;;;;;;;1.23;0.88;;;21.00;63.90;;;;;;10136567;28;20148;-68
2022/07/05 04:15:24;;;;;;;3.63;1.20;;;21.00;64.10;;;;;;10135985;28;20041;-62
2022/07/05 04:20:15;;;;;;;2.78;1.17;;;20.70;64.50;;;;;;10135851;28;20402;-63
2022/07/05 04:25:19;;;;;;;1.27;0.82;;;20.70;64.80;;;;;;10118228;28;20017;-66
2022/07/05 04:30:10;;;;;;;1.33;1.10;;;20.90;64.60;;;;;;10134700;28;20029;-62
2022/07/05 04:35:00;;;;;;;4.85;1.27;;;21.00;64.30;;;;;;10117361;28;20039;-64
2022/07/05 04:39:51;;;;;;;4.50;2.20;;;20.90;64.70;;;;;;10135776;28;20024;-64
2022/07/05 04:44:42;;;;;;;1.92;1.05;;;21.00;64.60;;;;;;10135583;28;20043;-62
2022/07/05 04:49:32;;;;;;;1.30;0.90;;;21.00;64.80;;;;;;10134378;28;20105;-62
2022/07/05 04:54:23;;;;;;;1.20;0.90;;;21.00;64.90;;;;;;10131950;28;20082;-66
2022/07/05 04:59:14;;;;;;;2.00;0.80;;;21.20;64.80;;;;;;10143019;28;20136;-65
2022/07/05 05:04:04;;;;;;;1.90;1.00;;;21.20;64.70;;;;;;10123620;28;20028;-62
2022/07/05 05:08:55;;;;;;;1.80;1.27;;;21.10;64.80;;;;;;10139916;28;20040;-64
2022/07/05 05:13:46;;;;;;;2.05;0.95;;;21.10;65.20;;;;;;10141215;28;20042;-63
2022/07/05 05:18:37;;;;;;;2.15;0.90;;;21.10;65.20;;;;;;10141431;28;20024;-66
2022/07/05 05:23:27;;;;;;;1.30;0.95;;;21.10;65.20;;;;;;10141750;28;20028;-66
2022/07/05 05:28:18;;;;;;;1.98;1.25;;;21.10;65.20;;;;;;10146776;28;20126;-64
2022/07/05 05:33:09;;;;;;;2.42;1.00;;;21.00;65.50;;;;;;10145169;28;20050;-62
2022/07/05 05:37:59;;;;;;;1.10;0.85;;;21.10;65.50;;;;;;10141622;28;20543;-64
2022/07/05 05:42:51;;;;;;;3.58;1.13;;;21.10;65.30;;;;;;10140677;28;20017;-65
2022/07/05 05:47:52;;;;;;;3.17;1.40;;;21.00;65.50;;;;;;10140426;28;20043;-64
2022/07/05 05:52:43;;;;;;;1.73;0.88;;;21.00;65.60;;;;;;10140656;28;20032;-61
2022/07/05 05:57:35;;;;;;;1.80;1.05;;;21.10;65.50;;;;;;10138451;28;20085;-63
2022/07/05 06:02:26;;;;;;;2.90;1.25;;;21.10;65.50;;;;;;10139851;28;20024;-61
2022/07/05 06:07:16;;;;;;;1.15;1.00;;;21.50;65.20;;;;;;10139421;28;20036;-64
2022/07/05 06:12:08;;;;;;;2.33;1.13;;;21.60;64.90;;;;;;10139718;28;20049;-65
2022/07/05 06:16:58;;;;;;;2.38;0.90;;;21.90;64.60;;;;;;10138875;28;20036;-66
2022/07/05 06:21:49;;;;;;;1.52;0.80;;;21.80;64.90;;;;;;10142328;28;20036;-63
2022/07/05 06:26:40;;;;;;;3.70;2.25;;;21.70;65.10;;;;;;10138535;28;20041;-62
2022/07/05 06:31:30;;;;;;;2.30;1.00;;;21.70;65.10;;;;;;10119414;28;20052;-67
2022/07/05 06:36:21;;;;;;;3.47;1.77;;;21.80;65.10;;;;;;10137712;28;20058;-65
2022/07/05 06:41:12;;;;;;;1.20;1.10;;;21.90;65.20;;;;;;10140473;28;20021;-63
2022/07/05 06:46:02;;;;;;;6.05;2.90;;;22.00;64.90;;;;;;10137591;28;20111;-64
2022/07/05 06:50:53;;;;;;;3.45;1.25;;;22.10;64.90;;;;;;10118630;28;20028;-68
2022/07/05 06:55:46;;;;;;;3.47;1.05;;;22.20;64.90;;;;;;10136821;28;20027;-70
2022/07/05 07:00:37;;;;;;;2.53;1.48;;;22.20;64.80;;;;;;10135469;28;20029;-68
2022/07/05 07:05:28;;;;;;;1.50;1.10;;;22.30;64.70;;;;;;10136935;28;20020;-69
2022/07/05 07:10:19;;;;;;;4.20;1.38;;;22.50;64.50;;;;;;10136511;28;20044;-70
2022/07/05 07:15:10;;;;;;;1.30;1.00;;;22.50;64.40;;;;;;10118076;28;20115;-67
2022/07/05 07:20:00;;;;;;;1.92;1.00;;;22.60;64.10;;;;;;10136168;28;20186;-68
2022/07/05 07:24:51;;;;;;;1.13;0.88;;;22.60;63.80;;;;;;10115388;28;20037;-70
2022/07/05 07:29:42;;;;;;;2.17;1.70;;;22.70;63.60;;;;;;10135923;28;20124;-66
2022/07/05 07:34:33;;;;;;;2.33;1.30;;;22.90;63.10;;;;;;10135732;28;20514;-62
2022/07/05 07:39:25;;;;;;;2.17;1.15;;;22.90;62.80;;;;;;10135957;28;20158;-65
2022/07/05 07:44:16;;;;;;;2.67;1.35;;;22.90;62.90;;;;;;10135781;28;20096;-67
2022/07/05 07:49:08;;;;;;;2.78;1.23;;;23.00;62.90;;;;;;10135147;28;20123;-65
2022/07/05 07:53:59;;;;;;;2.80;1.20;;;23.10;62.80;;;;;;10100612;28;20032;-68
2022/07/05 07:58:50;;;;;;;2.17;1.08;;;23.20;62.60;;;;;;10112603;28;20027;-68
2022/07/05 08:03:41;;;;;;;1.92;0.82;;;23.30;62.20;;;;;;10129106;28;20403;-65
2022/07/05 08:08:32;;;;;;;1.08;1.00;;;23.50;61.70;;;;;;10128575;28;20036;-64
2022/07/05 08:13:22;;;;;;;1.17;0.82;;;23.50;61.60;;;;;;10134047;28;20052;-69
2022/07/05 08:23:23;;;;;;;1.38;1.13;;;23.90;60.50;;;;;;10127997;28;20104;-70
2022/07/05 08:28:14;;;;;;;2.15;0.98;;;23.90;60.50;;;;;;10134534;28;20636;-71
2022/07/05 08:33:05;;;;;;;2.00;0.90;;;23.90;60.30;;;;;;10142730;28;20028;-64
2022/07/05 08:37:55;;;;;;;1.50;1.08;;;24.00;60.00;;;;;;10141526;28;20094;-64
2022/07/05 08:42:46;;;;;;;2.35;1.55;;;23.90;59.90;;;;;;10143248;28;20020;-67
2022/07/05 08:47:38;;;;;;;2.33;1.30;;;24.10;59.60;;;;;;10124249;28;20044;-61
2022/07/05 08:52:30;;;;;;;1.65;1.02;;;24.30;59.40;;;;;;10141751;28;20246;-62
2022/07/05 08:57:21;;;;;;;1.85;1.05;;;24.40;59.20;;;;;;10141414;28;20024;-70
2022/07/05 09:02:19;;;;;;;1.45;1.05;;;24.40;59.30;;;;;;10142481;28;20399;-70
2022/07/05 09:07:12;;;;;;;4.28;1.85;;;24.50;59.00;;;;;;10124525;28;20051;-69
2022/07/05 09:12:03;;;;;;;1.45;1.00;;;24.50;59.00;;;;;;10141931;28;20041;-66
2022/07/05 09:16:54;;;;;;;2.08;1.13;;;24.60;58.70;;;;;;10140771;28;20081;-63
2022/07/05 09:21:46;;;;;;;1.83;1.08;;;24.60;58.70;;;;;;10142391;28;20058;-64
2022/07/05 09:26:52;;;;;;;3.20;0.90;;;24.60;58.60;;;;;;10139013;28;20303;-69
2022/07/05 09:31:45;;;;;;;1.25;0.82;;;24.70;58.40;;;;;;10140957;28;20024;-66
2022/07/05 09:36:56;;;;;;;2.70;1.15;;;24.70;58.30;;;;;;10123076;28;20127;-63
2022/07/05 09:41:46;;;;;;;1.15;1.05;;;24.80;58.10;;;;;;10140400;28;20431;-64
2022/07/05 09:47:10;;;;;;;2.58;1.20;;;24.80;58.30;;;;;;10119353;28;20040;-73
2022/07/05 09:52:00;;;;;;;2.00;1.05;;;25.10;57.90;;;;;;10142293;28;20036;-72
2022/07/05 09:56:51;;;;;;;2.20;1.08;;;25.20;57.90;;;;;;10142313;28;20407;-71
2022/07/05 10:01:42;;;;;;;1.58;1.00;;;25.00;58.10;;;;;;10143007;28;20050;-75
2022/07/05 10:06:42;;;;;;;3.33;1.10;;;25.00;58.10;;;;;;10132046;28;20541;-68
2022/07/05 10:11:36;;;;;;;0.93;0.82;;;25.20;57.90;;;;;;10124985;28;20040;-70
2022/07/05 10:16:27;;;;;;;2.70;1.75;;;25.30;57.90;;;;;;10122769;28;20074;-65
2022/07/05 10:21:19;;;;;;;1.80;1.40;;;25.40;57.60;;;;;;10137840;28;20078;-67
2022/07/05 10:26:15;;;;;;;1.85;1.08;;;25.30;57.40;;;;;;10139209;28;20037;-59
2022/07/05 10:31:08;;;;;;;4.78;2.55;;;25.30;57.30;;;;;;10140369;28;20097;-62
2022/07/05 10:36:00;;;;;;;1.67;1.48;;;25.50;57.20;;;;;;10137239;28;20111;-64
2022/07/05 10:40:55;;;;;;;4.00;1.80;;;25.40;57.20;;;;;;10130998;28;20192;-61
2022/07/05 10:45:48;;;;;;;2.92;0.93;;;25.30;57.30;;;;;;10113586;28;20181;-63
2022/07/05 10:50:55;;;;;;;5.55;1.85;;;25.50;56.00;;;;;;10114329;28;20227;-63
2022/07/05 10:55:55;;;;;;;4.22;0.90;;;25.70;55.50;;;;;;10128752;28;20025;-69
2022/07/05 11:00:52;;;;;;;3.83;0.90;;;25.80;55.30;;;;;;10110771;28;20071;-66
2022/07/05 11:05:43;;;;;;;3.35;0.90;;;26.10;54.80;;;;;;10139883;28;20111;-63
2022/07/05 11:10:34;;;;;;;1.83;0.70;;;26.20;54.30;;;;;;10115365;28;20048;-65
2022/07/05 11:15:25;;;;;;;4.45;0.95;;;26.20;54.20;;;;;;10134209;28;20078;-63
2022/07/05 11:20:36;;;;;;;4.13;1.10;;;26.10;54.10;;;;;;10130093;28;20024;-61
2022/07/05 11:25:30;;;;;;;2.58;1.30;;;26.20;53.70;;;;;;10127186;28;20024;-65
2022/07/05 11:30:23;;;;;;;2.25;0.70;;;26.10;53.70;;;;;;10124804;28;20518;-60
2022/07/05 11:35:17;;;;;;;6.67;2.50;;;26.20;53.60;;;;;;10132589;28;20349;-61
2022/07/05 11:40:11;;;;;;;0.90;0.70;;;26.40;53.00;;;;;;10132279;28;20090;-59
2022/07/05 11:45:01;;;;;;;2.15;0.82;;;26.50;52.80;;;;;;10129908;28;20032;-64
2022/07/05 11:49:57;;;;;;;2.00;0.80;;;26.60;52.50;;;;;;10099337;28;20487;-62
2022/07/05 11:54:49;;;;;;;3.13;1.00;;;26.60;52.20;;;;;;10117117;28;20052;-65
2022/07/05 11:59:41;;;;;;;1.58;0.80;;;26.90;51.90;;;;;;10131566;28;20034;-66
2022/07/05 12:04:31;;;;;;;2.50;0.73;;;26.90;51.60;;;;;;10127215;28;20121;-64
2022/07/05 12:12:42;;;;;;;1.70;1.02;;;26.90;51.40;;;;;;10127396;28;20126;-68
2022/07/05 12:14:50;;;;;;;1.35;0.73;;;27.00;50.80;;;;;;10104333;28;20049;-64
2022/07/05 12:19:40;;;;;;;1.88;1.00;;;27.40;50.30;;;;;;10126775;28;20017;-67
2022/07/05 12:24:31;;;;;;;2.45;0.90;;;27.80;50.20;;;;;;10131727;28;20032;-65
2022/07/05 12:29:22;;;;;;;1.50;0.90;;;28.10;50.40;;;;;;10099100;28;20036;-63
2022/07/05 12:34:17;;;;;;;2.60;0.90;;;28.80;50.50;;;;;;10128632;28;20028;-61
2022/07/05 12:39:08;;;;;;;4.82;1.08;;;29.40;50.10;;;;;;10128535;28;20031;-71
2022/07/05 12:44:00;;;;;;;0.98;0.70;;;29.70;49.70;;;;;;10130790;28;20020;-63
2022/07/05 12:48:55;;;;;;;3.03;0.90;;;29.90;50.10;;;;;;10110115;28;20286;-65
2022/07/05 12:59:07;;;;;;;2.22;1.02;;;30.80;48.50;;;;;;10122738;28;20302;-69
2022/07/05 13:04:00;;;;;;;1.27;0.70;;;31.20;47.90;;;;;;10137189;28;20167;-67
2022/07/05 13:08:57;;;;;;;1.25;0.90;;;32.20;47.60;;;;;;10119722;28;20618;-67
2022/07/05 13:13:48;;;;;;;2.05;1.02;;;33.50;45.50;;;;;;10119530;28;20061;-61
2022/07/05 13:18:38;;;;;;;0.90;0.70;;;33.80;44.50;;;;;;10115820;28;20507;-63
2022/07/05 13:23:29;;;;;;;1.63;0.90;;;34.30;44.00;;;;;;10136154;28;20086;-66
2022/07/05 13:28:20;;;;;;;1.77;0.80;;;35.40;43.40;;;;;;10133422;28;20298;-63
2022/07/05 13:33:10;;;;;;;;;;;36.20;42.70;;;;;;10128325;28;20118;-62
2022/07/05 13:38:01;;;;;;;0.90;0.90;;;36.80;41.80;;;;;;10132932;28;19920;-64
2022/07/05 13:42:51;;;;;;;;;;;36.40;41.50;;;;;;10119752;28;20445;-66
2022/07/05 13:47:42;;;;;;;1.53;0.97;;;36.80;40.40;;;;;;10136734;28;19916;-63
2022/07/05 13:52:33;;;;;;;1.08;0.98;;;37.60;40.80;;;;;;10127541;28;20028;-66
2022/07/05 13:57:23;;;;;;;1.40;1.00;;;37.80;40.30;;;;;;10128905;28;20066;-65
2022/07/05 14:02:14;;;;;;;1.67;1.10;;;38.30;39.80;;;;;;10129972;28;20028;-65
2022/07/05 14:07:05;;;;;;;97.78;86.25;;;38.10;38.90;;;;;;10122241;28;20411;-66
2022/07/05 14:11:58;;;;;;;5.82;5.22;;;37.90;39.40;;;;;;10108588;28;20033;-66
2022/07/05 14:16:49;;;;;;;1.70;1.60;;;38.70;38.60;;;;;;10115700;28;20028;-71
2022/07/05 14:21:44;;;;;;;2.05;1.23;;;38.70;38.20;;;;;;10128463;28;20399;-71
2022/07/05 14:26:34;;;;;;;1.00;0.90;;;38.60;38.00;;;;;;10135859;28;20048;-68
2022/07/05 14:31:30;;;;;;;1.30;0.75;;;39.10;37.50;;;;;;10115263;28;20028;-70
2022/07/05 14:36:23;;;;;;;1.48;1.00;;;39.20;37.30;;;;;;10135816;28;20016;-73
2022/07/05 14:41:16;;;;;;;4.32;1.20;;;40.00;37.10;;;;;;10101152;28;20267;-73
2022/07/05 14:46:07;;;;;;;0.85;0.85;;;39.10;36.70;;;;;;10106077;28;20547;-65
2022/07/05 14:50:58;;;;;;;2.95;0.93;;;39.00;36.60;;;;;;10117562;28;20364;-65
2022/07/05 14:55:49;;;;;;;2.00;0.93;;;39.40;36.60;;;;;;10134122;28;20028;-67
2022/07/05 15:00:40;;;;;;;0.85;0.85;;;40.10;36.30;;;;;;10134865;28;20090;-66
2022/07/05 15:05:30;;;;;;;1.98;0.95;;;41.00;35.80;;;;;;10119322;28;20033;-62
2022/07/05 15:10:21;;;;;;;1.85;1.30;;;40.90;35.40;;;;;;10118084;28;20098;-64
2022/07/05 15:15:12;;;;;;;2.03;0.80;;;39.20;35.40;;;;;;10108680;28;20029;-68
2022/07/05 15:20:03;;;;;;;1.58;1.02;;;38.20;35.60;;;;;;10086768;28;20034;-67
2022/07/05 15:24:54;;;;;;;2.85;1.65;;;37.80;34.70;;;;;;10109092;28;20261;-68
2022/07/05 15:29:46;;;;;;;1.85;1.75;;;38.20;34.80;;;;;;10081216;28;20037;-65
2022/07/05 15:34:37;;;;;;;3.83;1.90;;;38.70;34.30;;;;;;10078821;28;20265;-62
2022/07/05 15:39:28;;;;;;;1.33;1.00;;;39.10;34.20;;;;;;10099287;28;20501;-61
2022/07/05 15:44:18;;;;;;;2.42;1.67;;;37.90;34.10;;;;;;10108541;28;20021;-63
2022/07/05 15:49:09;;;;;;;1.85;1.50;;;37.80;34.00;;;;;;10097802;28;20033;-65
2022/07/05 15:54:00;;;;;;;3.33;1.55;;;37.90;33.90;;;;;;10131921;28;20086;-64
2022/07/05 15:58:51;;;;;;;1.67;1.05;;;38.50;33.50;;;;;;10132195;28;20119;-66
2022/07/05 16:03:50;;;;;;;2.22;1.00;;;36.70;34.40;;;;;;10118105;28;20044;-63
2022/07/05 16:08:41;;;;;;;56.22;50.33;;;35.90;34.20;;;;;;10094765;28;20060;-59
2022/07/05 16:13:32;;;;;;;7.15;5.20;;;36.50;34.30;;;;;;10102557;28;20056;-65
2022/07/05 16:18:23;;;;;;;2.03;1.83;;;34.60;35.10;;;;;;10112944;28;20082;-67
2022/07/05 16:23:14;;;;;;;2.28;1.60;;;33.10;35.70;;;;;;10112250;28;20119;-61
2022/07/05 16:28:07;;;;;;;3.28;1.40;;;35.50;35.00;;;;;;10129629;28;20123;-58
2022/07/05 16:33:01;;;;;;;2.47;1.58;;;38.50;34.00;;;;;;10130123;28;20016;-62
2022/07/05 16:37:52;;;;;;;4.15;2.25;;;39.00;32.90;;;;;;10129341;28;20082;-63
2022/07/05 16:42:43;;;;;;;;;;;40.00;32.50;;;;;;10112108;28;20190;-65
2022/07/05 16:47:34;;;;;;;59.50;45.88;;;40.70;32.10;;;;;;10111138;28;19916;-64
2022/07/05 16:52:25;;;;;;;7.40;6.70;;;40.90;32.20;;;;;;10115112;28;20033;-63
2022/07/05 16:57:19;;;;;;;3.53;2.90;;;40.80;32.30;;;;;;10137777;28;20546;-59
2022/07/05 17:02:15;;;;;;;4.40;1.27;;;41.50;31.80;;;;;;10138460;28;20033;-58
2022/07/05 17:07:15;;;;;;;2.28;1.30;;;41.10;31.00;;;;;;10112318;28;20040;-62
2022/07/05 17:12:06;;;;;;;2.88;1.38;;;41.50;30.50;;;;;;10119924;28;20605;-59
2022/07/05 17:16:57;;;;;;;2.47;1.92;;;41.90;30.60;;;;;;10119968;28;20033;-60
2022/07/05 17:21:51;;;;;;;1.27;1.08;;;41.70;29.70;;;;;;10128638;28;20035;-63
2022/07/05 17:26:50;;;;;;;2.00;1.15;;;41.20;29.60;;;;;;10137940;28;20028;-58
2022/07/05 17:31:41;;;;;;;1.73;1.25;;;41.60;29.50;;;;;;10130000;28;20020;-58
2022/07/05 17:36:32;;;;;;;;;;;41.70;29.30;;;;;;10138157;28;20027;-61
2022/07/05 17:41:23;;;;;;;2.13;0.97;;;41.40;29.30;;;;;;10138892;28;19908;-60
2022/07/05 17:46:17;;;;;;;2.50;1.20;;;41.70;29.40;;;;;;10138072;28;20029;-64
2022/07/05 17:51:11;;;;;;;1.85;1.38;;;41.30;29.30;;;;;;10138617;28;20062;-67
2022/07/05 17:56:02;;;;;;;2.85;1.00;;;40.70;29.50;;;;;;10139419;28;20037;-66
2022/07/05 18:00:56;;;;;;;2.17;1.40;;;41.10;29.30;;;;;;10138152;28;20054;-65
2022/07/05 18:05:47;;;;;;;2.58;1.65;;;40.20;29.30;;;;;;10136408;28;20379;-63
2022/07/05 18:10:38;;;;;;;1.65;1.25;;;36.00;30.70;;;;;;10137837;28;20063;-65
2022/07/05 18:15:31;;;;;;;2.33;1.20;;;33.50;32.00;;;;;;10137248;28;20029;-66
2022/07/05 18:20:22;;;;;;;1.90;1.40;;;32.40;32.60;;;;;;10135047;28;20040;-72
2022/07/05 18:25:13;;;;;;;1.90;1.13;;;32.20;33.50;;;;;;10137267;28;20039;-62
2022/07/05 18:30:05;;;;;;;2.88;1.58;;;31.20;33.20;;;;;;10136344;28;20510;-61
2022/07/05 18:34:56;;;;;;;4.40;2.38;;;30.80;33.50;;;;;;10119285;28;20075;-67
2022/07/05 18:39:50;;;;;;;2.05;1.30;;;30.70;33.80;;;;;;10136103;28;20533;-69
2022/07/05 18:44:41;;;;;;;;;;;30.70;33.90;;;;;;10132447;28;20078;-63
2022/07/05 18:49:32;;;;;;;1.52;1.42;;;30.70;34.20;;;;;;10135813;28;19916;-58
2022/07/05 18:54:23;;;;;;;1.90;1.35;;;30.50;34.20;;;;;;10118849;28;20563;-62
2022/07/05 18:59:14;;;;;;;2.13;1.20;;;30.20;34.70;;;;;;10135855;28;20020;-62
2022/07/05 19:04:05;;;;;;;3.85;1.95;;;30.10;35.10;;;;;;10135133;28;20051;-66
2022/07/05 19:14:04;;;;;;;2.75;1.67;;;30.00;35.50;;;;;;10134282;28;20047;-62
2022/07/05 19:18:55;;;;;;;5.03;1.75;;;29.70;36.00;;;;;;10133682;28;20031;-63
2022/07/05 19:23:48;;;;;;;2.22;1.38;;;29.40;36.50;;;;;;10135063;28;20399;-62
2022/07/05 19:28:39;;;;;;;1.63;1.45;;;29.00;36.90;;;;;;10135601;28;20380;-63
2022/07/05 19:33:30;;;;;;;5.97;2.17;;;28.80;37.40;;;;;;10134836;28;20024;-62
2022/07/05 19:38:21;;;;;;;5.07;1.80;;;28.50;38.00;;;;;;10115747;28;20123;-73
2022/07/05 19:43:12;;;;;;;4.05;1.85;;;28.40;38.30;;;;;;10127485;28;20253;-61
2022/07/05 19:48:02;;;;;;;3.67;1.27;;;28.20;38.70;;;;;;10136395;28;20094;-61
2022/07/05 19:52:53;;;;;;;4.80;1.35;;;28.00;39.20;;;;;;10135616;28;20039;-63
2022/07/05 19:57:44;;;;;;;3.38;1.40;;;28.00;39.40;;;;;;10116895;28;20107;-63
2022/07/05 20:02:35;;;;;;;3.08;1.45;;;28.00;39.70;;;;;;10135982;28;20025;-63
2022/07/05 20:07:25;;;;;;;5.45;1.80;;;28.00;40.20;;;;;;10135282;28;20044;-62
2022/07/05 20:12:16;;;;;;;3.47;1.30;;;27.90;40.30;;;;;;10131989;28;20041;-69
2022/07/05 20:17:07;;;;;;;5.70;1.65;;;27.70;40.60;;;;;;10115101;28;20051;-70
2022/07/05 20:21:58;;;;;;;11.10;5.15;;;27.80;41.00;;;;;;10118046;28;20036;-65
2022/07/05 20:26:49;;;;;;;3.80;2.58;;;27.40;41.50;;;;;;10129561;28;20076;-65
2022/07/05 20:31:39;;;;;;;1.67;1.33;;;27.40;41.50;;;;;;10133915;28;20440;-61
2022/07/05 20:36:30;;;;;;;2.97;1.45;;;27.40;41.90;;;;;;10134862;28;20032;-60
2022/07/05 20:41:21;;;;;;;2.85;1.75;;;27.30;42.10;;;;;;10140991;28;20129;-61
2022/07/05 20:46:11;;;;;;;6.57;1.10;;;27.20;42.20;;;;;;10121583;28;20574;-64
2022/07/05 20:51:02;;;;;;;1.50;1.33;;;27.10;42.50;;;;;;10121717;28;20039;-65
2022/07/05 20:55:54;;;;;;;1.60;1.10;;;27.00;42.80;;;;;;10138414;28;20525;-62
2022/07/05 21:00:44;;;;;;;3.50;1.50;;;27.10;42.80;;;;;;10137766;28;20033;-60
2022/07/05 21:05:35;;;;;;;1.98;1.10;;;26.80;43.00;;;;;;10137276;28;20033;-61
2022/07/05 21:10:26;;;;;;;2.78;1.30;;;26.50;43.50;;;;;;10137708;28;20063;-62
2022/07/05 21:15:19;;;;;;;1.60;1.15;;;26.40;43.70;;;;;;10137016;28;20028;-59
2022/07/05 21:20:10;;;;;;;1.98;1.10;;;26.30;43.70;;;;;;10135834;28;20031;-59
2022/07/05 21:25:00;;;;;;;2.03;1.20;;;26.30;43.80;;;;;;10136597;28;20448;-59
2022/07/05 21:29:51;;;;;;;1.35;0.80;;;26.50;43.80;;;;;;10136620;28;20628;-58
2022/07/05 21:34:42;;;;;;;3.17;1.17;;;26.00;44.30;;;;;;10136464;28;20644;-58
2022/07/05 21:39:32;;;;;;;1.90;1.25;;;25.80;44.70;;;;;;10141027;28;20078;-60
2022/07/05 21:44:23;;;;;;;2.40;1.60;;;25.60;44.80;;;;;;10137230;28;20028;-59
2022/07/05 21:49:14;;;;;;;1.30;1.20;;;25.60;44.80;;;;;;10137522;28;20038;-63
2022/07/05 21:54:05;;;;;;;5.95;1.02;;;25.50;44.90;;;;;;10136511;28;20032;-61
2022/07/05 22:09:14;;;;;;;3.38;2.03;;;25.30;45.10;;;;;;10135625;28;20039;-58
2022/07/05 22:14:05;;;;;;;1.80;0.95;;;25.30;45.10;;;;;;10135204;28;20115;-60
2022/07/05 22:18:56;;;;;;;2.65;1.10;;;25.00;45.10;;;;;;10129263;28;20064;-58
2022/07/05 22:23:46;;;;;;;2.38;1.10;;;24.90;45.10;;;;;;10130524;28;20044;-58
2022/07/05 22:28:37;;;;;;;1.05;0.80;;;24.90;45.30;;;;;;10116160;28;20044;-57
2022/07/05 22:33:28;;;;;;;1.00;0.95;;;24.70;45.40;;;;;;10134358;28;20544;-64
2022/07/05 22:38:19;;;;;;;3.78;1.60;;;24.80;45.40;;;;;;10134227;28;20039;-60
2022/07/05 22:43:10;;;;;;;5.00;1.05;;;24.70;45.60;;;;;;10135725;28;20028;-58
2022/07/05 22:48:00;;;;;;;2.22;0.80;;;24.50;45.80;;;;;;10133487;28;20514;-57
2022/07/05 22:52:51;;;;;;;2.63;0.77;;;24.60;46.10;;;;;;10134320;28;20402;-58
2022/07/05 22:57:42;;;;;;;1.02;0.70;;;24.90;45.80;;;;;;10133295;28;20402;-59
2022/07/05 23:02:32;;;;;;;2.60;0.98;;;24.90;46.10;;;;;;10133335;28;20032;-58
2022/07/05 23:07:23;;;;;;;2.70;1.40;;;25.00;46.30;;;;;;10115065;28;20033;-62
2022/07/05 23:12:13;;;;;;;2.83;1.20;;;24.70;46.90;;;;;;10133506;28;20048;-57
2022/07/05 23:17:04;;;;;;;3.75;1.08;;;24.40;47.40;;;;;;10132835;28;20443;-63
2022/07/05 23:21:55;;;;;;;1.60;1.10;;;24.50;47.40;;;;;;10122505;28;20107;-69
2022/07/05 23:26:45;;;;;;;2.08;1.10;;;24.00;47.80;;;;;;10132369;28;20146;-61
2022/07/05 23:31:36;;;;;;;3.15;1.45;;;24.20;48.00;;;;;;10132358;28;20518;-60
2022/07/05 23:36:27;;;;;;;2.70;1.10;;;24.50;47.80;;;;;;10131765;28;20441;-62
2022/07/05 23:41:17;;;;;;;1.63;1.08;;;24.50;47.90;;;;;;10132440;28;20461;-61
2022/07/05 23:46:08;;;;;;;1.30;1.00;;;24.20;48.50;;;;;;10131566;28;20376;-64
2022/07/05 23:50:59;;;;;;;2.97;1.20;;;24.10;48.40;;;;;;10113818;28;20025;-58
2022/07/05 23:55:49;;;;;;;1.02;0.93;;;24.20;48.60;;;;;;10132429;28;20016;-59
